createdAt,value
2022-08-02T00:00:39.402Z,0.00
2022-08-02T00:01:38.430Z,0.00
2022-08-02T00:02:38.374Z,0.00
2022-08-02T00:03:38.355Z,0.00
2022-08-02T00:04:38.343Z,0.00
2022-08-02T00:05:38.352Z,0.00
2022-08-02T00:06:38.323Z,0.00
2022-08-02T00:07:41.187Z,0.00
2022-08-02T00:08:38.304Z,0.00
2022-08-02T00:09:38.277Z,0.00
2022-08-02T00:10:38.267Z,0.00
2022-08-02T00:11:38.295Z,0.00
2022-08-02T00:12:39.253Z,0.00
2022-08-02T00:13:38.227Z,0.00
2022-08-02T00:14:38.222Z,0.00
2022-08-02T00:15:38.205Z,0.00
2022-08-02T00:16:38.705Z,0.00
2022-08-02T00:17:38.207Z,0.00
2022-08-02T00:18:38.163Z,0.00
2022-08-02T00:19:38.158Z,0.00
2022-08-02T00:20:38.137Z,0.00
2022-08-02T00:21:38.125Z,0.00
2022-08-02T00:22:38.108Z,0.00
2022-08-02T00:24:03.337Z,0.00
2022-08-02T00:24:39.080Z,0.00
2022-08-02T00:25:54.516Z,0.00
2022-08-02T00:26:39.063Z,0.00
2022-08-02T00:27:38.050Z,0.00
2022-08-02T00:28:38.159Z,0.00
2022-08-02T00:29:42.458Z,0.00
2022-08-02T00:30:39.011Z,0.00
2022-08-02T00:31:38.000Z,0.00
2022-08-02T00:32:37.981Z,0.00
2022-08-02T00:34:26.474Z,0.00
2022-08-02T00:34:38.983Z,0.00
2022-08-02T00:35:40.734Z,0.00
2022-08-02T00:36:37.943Z,0.00
2022-08-02T00:37:37.922Z,0.00
2022-08-02T00:38:38.027Z,0.00
2022-08-02T00:39:37.913Z,0.00
2022-08-02T00:40:37.903Z,0.00
2022-08-02T00:41:37.873Z,0.00
2022-08-02T00:42:37.854Z,0.00
2022-08-02T00:43:37.845Z,0.00
2022-08-02T00:44:37.832Z,0.00
2022-08-02T00:46:02.268Z,0.00
2022-08-02T00:46:38.906Z,0.00
2022-08-02T00:47:37.786Z,0.00
2022-08-02T00:48:37.786Z,0.00
2022-08-02T00:49:38.844Z,0.00
2022-08-02T00:50:37.746Z,0.00
2022-08-02T00:51:37.738Z,0.00
2022-08-02T00:52:37.747Z,0.00
2022-08-02T00:53:37.717Z,0.00
2022-08-02T00:54:37.698Z,0.00
2022-08-02T00:55:37.687Z,0.00
2022-08-02T00:56:37.667Z,0.00
2022-08-02T00:57:37.668Z,0.00
2022-08-02T00:58:37.757Z,0.00
2022-08-02T00:59:37.640Z,0.00
2022-08-02T01:00:37.620Z,0.00
2022-08-02T01:01:37.651Z,0.00
2022-08-02T01:02:38.620Z,0.00
2022-08-02T01:03:37.601Z,0.00
2022-08-02T01:04:37.590Z,0.00
2022-08-02T01:06:02.360Z,0.00
2022-08-02T01:06:38.550Z,0.00
2022-08-02T01:07:37.530Z,0.00
2022-08-02T01:08:37.521Z,0.00
2022-08-02T01:09:37.512Z,0.00
2022-08-02T01:10:37.610Z,0.00
2022-08-02T01:11:37.481Z,0.00
2022-08-02T01:12:37.465Z,0.00
2022-08-02T01:13:37.455Z,0.00
2022-08-02T01:14:37.454Z,0.00
2022-08-02T01:15:37.436Z,0.00
2022-08-02T01:16:37.438Z,0.00
2022-08-02T01:17:37.405Z,0.00
2022-08-02T01:18:37.385Z,0.00
2022-08-02T01:19:37.434Z,0.00
2022-08-02T01:20:37.365Z,0.00
2022-08-02T01:21:37.355Z,0.00
2022-08-02T01:23:00.116Z,0.00
2022-08-02T01:23:38.347Z,0.00
2022-08-02T01:24:37.316Z,0.00
2022-08-02T01:25:37.303Z,0.00
2022-08-02T01:26:37.341Z,0.00
2022-08-02T01:27:37.278Z,0.00
2022-08-02T01:28:37.311Z,0.00
2022-08-02T01:29:37.261Z,0.00
2022-08-02T01:30:37.236Z,0.00
2022-08-02T01:31:37.227Z,0.00
2022-08-02T01:32:37.208Z,0.00
2022-08-02T01:33:37.201Z,0.00
2022-08-02T01:34:37.208Z,0.00
2022-08-02T01:35:50.898Z,0.00
2022-08-02T01:36:38.158Z,0.00
2022-08-02T01:37:37.149Z,0.00
2022-08-02T01:38:37.130Z,0.00
2022-08-02T01:39:37.127Z,0.00
2022-08-02T01:40:37.119Z,0.00
2022-08-02T01:41:37.099Z,0.00
2022-08-02T01:42:37.082Z,0.00
2022-08-02T01:43:37.082Z,0.00
2022-08-02T01:44:37.054Z,0.00
2022-08-02T01:45:37.057Z,0.00
2022-08-02T01:46:37.040Z,0.00
2022-08-02T01:47:37.022Z,0.00
2022-08-02T01:48:37.003Z,0.00
2022-08-02T01:49:37.073Z,0.00
2022-08-02T01:50:36.983Z,0.00
2022-08-02T01:51:36.973Z,0.00
2022-08-02T01:52:36.958Z,0.00
2022-08-02T01:53:36.946Z,0.00
2022-08-02T01:54:36.924Z,0.00
2022-08-02T01:55:57.711Z,0.00
2022-08-02T01:56:37.904Z,0.00
2022-08-02T01:57:41.826Z,0.00
2022-08-02T01:58:37.875Z,0.00
2022-08-02T01:59:36.866Z,0.00
2022-08-02T02:00:36.847Z,0.00
2022-08-02T02:01:36.946Z,0.00
2022-08-02T02:02:36.827Z,0.00
2022-08-02T02:03:41.720Z,0.00
2022-08-02T02:04:37.796Z,0.00
2022-08-02T02:05:36.803Z,0.00
2022-08-02T02:06:36.768Z,0.00
2022-08-02T02:07:36.777Z,0.00
2022-08-02T02:08:36.748Z,0.00
2022-08-02T02:09:36.739Z,0.00
2022-08-02T02:10:37.721Z,0.00
2022-08-02T02:12:06.506Z,0.00
2022-08-02T02:12:37.727Z,0.00
2022-08-02T02:13:36.689Z,0.00
2022-08-02T02:14:36.680Z,0.00
2022-08-02T02:15:36.659Z,0.00
2022-08-02T02:16:36.641Z,0.00
2022-08-02T02:18:10.658Z,0.00
2022-08-02T02:18:37.731Z,0.00
2022-08-02T02:19:36.632Z,0.00
2022-08-02T02:20:36.592Z,0.00
2022-08-02T02:21:36.598Z,0.00
2022-08-02T02:22:36.563Z,0.00
2022-08-02T02:23:36.553Z,0.00
2022-08-02T02:24:36.799Z,0.00
2022-08-02T02:25:41.878Z,0.00
2022-08-02T02:26:37.524Z,0.00
2022-08-02T02:27:37.128Z,0.00
2022-08-02T02:28:36.496Z,0.00
2022-08-02T02:29:36.485Z,0.00
2022-08-02T02:30:36.495Z,0.00
2022-08-02T02:31:36.490Z,0.00
2022-08-02T02:32:36.444Z,0.00
2022-08-02T02:33:36.426Z,0.00
2022-08-02T02:34:36.417Z,0.00
2022-08-02T02:35:36.408Z,0.00
2022-08-02T02:36:36.415Z,0.00
2022-08-02T02:37:36.387Z,0.00
2022-08-02T02:38:36.370Z,0.00
2022-08-02T02:39:36.348Z,0.00
2022-08-02T02:40:36.337Z,0.00
2022-08-02T02:41:36.328Z,0.00
2022-08-02T02:42:36.337Z,0.00
2022-08-02T02:43:36.306Z,0.00
2022-08-02T02:44:36.288Z,0.00
2022-08-02T02:45:36.282Z,0.00
2022-08-02T02:46:36.267Z,0.00
2022-08-02T02:47:40.258Z,0.00
2022-08-02T02:48:37.270Z,0.00
2022-08-02T02:49:36.286Z,0.00
2022-08-02T02:50:36.214Z,0.00
2022-08-02T02:51:36.201Z,0.00
2022-08-02T02:52:36.182Z,0.00
2022-08-02T02:54:30.618Z,0.00
2022-08-02T02:54:37.193Z,0.00
2022-08-02T02:55:36.153Z,0.00
2022-08-02T02:56:36.131Z,0.00
2022-08-02T02:57:36.173Z,0.00
2022-08-02T02:58:36.103Z,0.00
2022-08-02T02:59:36.099Z,0.00
2022-08-02T03:00:37.113Z,0.00
2022-08-02T03:01:57.335Z,1.00
2022-08-02T03:02:37.055Z,1.00
2022-08-02T03:03:36.051Z,1.00
2022-08-02T03:04:57.556Z,1.00
2022-08-02T03:05:37.024Z,0.00
2022-08-02T03:06:36.025Z,0.00
2022-08-02T03:07:35.995Z,0.00
2022-08-02T03:08:35.983Z,0.00
2022-08-02T03:09:35.975Z,0.00
2022-08-02T03:10:35.957Z,2.00
2022-08-02T03:11:35.946Z,2.00
2022-08-02T03:12:35.967Z,2.00
2022-08-02T03:13:37.518Z,2.00
2022-08-02T03:14:35.906Z,4.00
2022-08-02T03:15:35.898Z,0.00
2022-08-02T03:16:35.878Z,0.00
2022-08-02T03:17:35.871Z,4.00
2022-08-02T03:18:35.887Z,4.00
2022-08-02T03:19:35.838Z,7.00
2022-08-02T03:20:35.828Z,6.00
2022-08-02T03:21:35.821Z,10.00
2022-08-02T03:22:35.799Z,9.00
2022-08-02T03:23:35.790Z,13.00
2022-08-02T03:24:35.893Z,15.00
2022-08-02T03:25:35.760Z,13.00
2022-08-02T03:26:35.751Z,20.00
2022-08-02T03:27:35.749Z,10.00
2022-08-02T03:28:35.724Z,21.00
2022-08-02T03:29:35.715Z,22.00
2022-08-02T03:30:35.740Z,22.00
2022-08-02T03:31:35.692Z,36.00
2022-08-02T03:32:35.682Z,28.00
2022-08-02T03:33:35.703Z,33.00
2022-08-02T03:34:35.651Z,45.00
2022-08-02T03:35:35.643Z,58.00
2022-08-02T03:36:35.662Z,56.00
2022-08-02T03:37:35.613Z,73.00
2022-08-02T03:38:35.604Z,85.00
2022-08-02T03:39:35.585Z,89.00
2022-08-02T03:40:35.574Z,100.00
2022-08-02T03:41:35.563Z,124.00
2022-08-02T03:42:35.564Z,118.00
2022-08-02T03:43:35.545Z,139.00
2022-08-02T03:44:35.524Z,149.00
2022-08-02T03:45:35.517Z,167.00
2022-08-02T03:46:35.495Z,193.00
2022-08-02T03:47:35.494Z,199.00
2022-08-02T03:48:35.500Z,217.00
2022-08-02T03:49:35.479Z,248.00
2022-08-02T03:50:35.448Z,267.00
2022-08-02T03:51:35.438Z,284.00
2022-08-02T03:52:35.418Z,307.00
2022-08-02T03:53:35.409Z,328.00
2022-08-02T03:54:45.765Z,359.00
2022-08-02T03:55:36.385Z,385.00
2022-08-02T03:56:35.368Z,414.00
2022-08-02T03:57:35.360Z,449.00
2022-08-02T03:58:35.349Z,479.00
2022-08-02T03:59:35.330Z,514.00
2022-08-02T04:00:36.432Z,560.00
2022-08-02T04:01:35.313Z,596.00
2022-08-02T04:02:35.292Z,647.00
2022-08-02T04:03:35.310Z,698.00
2022-08-02T04:04:35.271Z,742.00
2022-08-02T04:05:35.258Z,804.00
2022-08-02T04:06:40.159Z,849.00
2022-08-02T04:08:32.681Z,909.00
2022-08-02T04:08:38.434Z,953.00
2022-08-02T04:09:35.209Z,1024.00
2022-08-02T04:10:35.192Z,1077.00
2022-08-02T04:11:35.183Z,1156.00
2022-08-02T04:12:35.192Z,1216.00
2022-08-02T04:13:35.854Z,1281.00
2022-08-02T04:14:36.247Z,1346.00
2022-08-02T04:15:35.133Z,1418.00
2022-08-02T04:16:35.125Z,1487.00
2022-08-02T04:17:35.103Z,1550.00
2022-08-02T04:18:35.135Z,1608.00
2022-08-02T04:19:35.075Z,1667.00
2022-08-02T04:20:35.066Z,1736.00
2022-08-02T04:21:49.001Z,1803.00
2022-08-02T04:22:36.045Z,1872.00
2022-08-02T04:23:35.027Z,1950.00
2022-08-02T04:24:35.049Z,2044.00
2022-08-02T04:25:39.997Z,2158.00
2022-08-02T04:26:35.996Z,2267.00
2022-08-02T04:27:51.137Z,2376.00
2022-08-02T04:28:35.967Z,2479.00
2022-08-02T04:29:34.959Z,2565.00
2022-08-02T04:30:34.967Z,2661.00
2022-08-02T04:31:34.929Z,2740.00
2022-08-02T04:32:34.919Z,2809.00
2022-08-02T04:33:34.911Z,2848.00
2022-08-02T04:34:34.918Z,2864.00
2022-08-02T04:35:34.880Z,2875.00
2022-08-02T04:36:34.893Z,2891.00
2022-08-02T04:37:34.853Z,2920.00
2022-08-02T04:38:34.843Z,2936.00
2022-08-02T04:39:34.824Z,2946.00
2022-08-02T04:40:34.827Z,2981.00
2022-08-02T04:41:34.802Z,3021.00
2022-08-02T04:42:35.911Z,3069.00
2022-08-02T04:43:34.776Z,3096.00
2022-08-02T04:44:34.762Z,3153.00
2022-08-02T04:45:34.744Z,3227.00
2022-08-02T04:46:34.743Z,3282.00
2022-08-02T04:48:01.961Z,3349.00
2022-08-02T04:48:35.743Z,3417.00
2022-08-02T04:49:34.748Z,3493.00
2022-08-02T04:50:34.692Z,3580.00
2022-08-02T04:51:38.025Z,3694.00
2022-08-02T04:52:34.655Z,3805.00
2022-08-02T04:53:34.645Z,3902.00
2022-08-02T04:54:34.745Z,4017.00
2022-08-02T04:55:34.620Z,4117.00
2022-08-02T04:56:34.614Z,4232.00
2022-08-02T04:57:34.585Z,4335.00
2022-08-02T04:58:40.524Z,4446.00
2022-08-02T04:59:35.591Z,4560.00
2022-08-02T05:00:34.586Z,4674.00
2022-08-02T05:01:34.546Z,4776.00
2022-08-02T05:02:34.527Z,4856.00
2022-08-02T05:03:34.524Z,4921.00
2022-08-02T05:04:34.508Z,4986.00
2022-08-02T05:05:34.518Z,5052.00
2022-08-02T05:06:34.478Z,5132.00
2022-08-02T05:07:36.130Z,5192.00
2022-08-02T05:08:34.457Z,5250.00
2022-08-02T05:09:34.441Z,5283.00
2022-08-02T05:10:34.432Z,5296.00
2022-08-02T05:11:36.791Z,5286.00
2022-08-02T05:12:34.403Z,5227.00
2022-08-02T05:13:34.392Z,5261.00
2022-08-02T05:14:35.373Z,5232.00
2022-08-02T05:15:34.361Z,5189.00
2022-08-02T05:16:34.352Z,5150.00
2022-08-02T05:17:34.362Z,5137.00
2022-08-02T05:18:34.351Z,5144.00
2022-08-02T05:19:34.344Z,5146.00
2022-08-02T05:20:34.327Z,5141.00
2022-08-02T05:21:34.323Z,5129.00
2022-08-02T05:22:34.283Z,5119.00
2022-08-02T05:23:34.312Z,5109.00
2022-08-02T05:24:34.246Z,5089.00
2022-08-02T05:25:34.259Z,5065.00
2022-08-02T05:26:34.244Z,5039.00
2022-08-02T05:27:34.218Z,5012.00
2022-08-02T05:28:34.202Z,4988.00
2022-08-02T05:29:34.216Z,4955.00
2022-08-02T05:30:34.188Z,4932.00
2022-08-02T05:31:34.168Z,4915.00
2022-08-02T05:32:34.171Z,4887.00
2022-08-02T05:33:34.127Z,4852.00
2022-08-02T05:34:34.118Z,4851.00
2022-08-02T05:35:34.138Z,4790.00
2022-08-02T05:36:34.095Z,4673.00
2022-08-02T05:37:35.439Z,4717.00
2022-08-02T05:38:37.119Z,4766.00
2022-08-02T05:39:34.057Z,4838.00
2022-08-02T05:40:34.052Z,5030.00
2022-08-02T05:41:34.060Z,5125.00
2022-08-02T05:42:34.022Z,5182.00
2022-08-02T05:43:34.001Z,5209.00
2022-08-02T05:44:33.998Z,5204.00
2022-08-02T05:45:33.991Z,4851.00
2022-08-02T05:46:33.970Z,5361.00
2022-08-02T05:47:33.971Z,5349.00
2022-08-02T05:48:33.941Z,5363.00
2022-08-02T05:49:34.027Z,5384.00
2022-08-02T05:50:33.933Z,5443.00
2022-08-02T05:51:33.893Z,5493.00
2022-08-02T05:52:33.884Z,5532.00
2022-08-02T05:53:34.566Z,5570.00
2022-08-02T05:54:33.864Z,5621.00
2022-08-02T05:55:33.844Z,5700.00
2022-08-02T05:56:33.835Z,5766.00
2022-08-02T05:57:33.822Z,5819.00
2022-08-02T05:58:34.835Z,5915.00
2022-08-02T05:59:33.800Z,5983.00
2022-08-02T06:00:33.789Z,6050.00
2022-08-02T06:01:33.868Z,6107.00
2022-08-02T06:02:33.766Z,6164.00
2022-08-02T06:03:33.748Z,6219.00
2022-08-02T06:04:33.776Z,6245.00
2022-08-02T06:05:33.727Z,6262.00
2022-08-02T06:06:33.727Z,6302.00
2022-08-02T06:07:33.698Z,6288.00
2022-08-02T06:08:33.688Z,6309.00
2022-08-02T06:09:33.677Z,6310.00
2022-08-02T06:10:33.699Z,6299.00
2022-08-02T06:11:33.648Z,6265.00
2022-08-02T06:12:34.595Z,6225.00
2022-08-02T06:13:33.631Z,5968.00
2022-08-02T06:14:33.618Z,6083.00
2022-08-02T06:15:34.550Z,6408.00
2022-08-02T06:16:36.826Z,6353.00
2022-08-02T06:17:34.580Z,6310.00
2022-08-02T06:18:34.561Z,6058.00
2022-08-02T06:19:51.032Z,6079.00
2022-08-02T06:20:34.551Z,6088.00
2022-08-02T06:22:32.542Z,6290.00
2022-08-02T06:22:40.706Z,6720.00
2022-08-02T06:23:34.495Z,6738.00
2022-08-02T06:24:34.434Z,6736.00
2022-08-02T06:25:50.595Z,6751.00
2022-08-02T06:26:34.465Z,6733.00
2022-08-02T06:27:34.395Z,6107.00
2022-08-02T06:28:33.466Z,6835.00
2022-08-02T06:29:37.034Z,6835.00
2022-08-02T06:30:34.408Z,6837.00
2022-08-02T06:31:33.392Z,6847.00
2022-08-02T06:32:33.400Z,6879.00
2022-08-02T06:33:33.393Z,6945.00
2022-08-02T06:34:33.387Z,7025.00
2022-08-02T06:35:33.355Z,7143.00
2022-08-02T06:36:33.325Z,7224.00
2022-08-02T06:37:33.317Z,7308.00
2022-08-02T06:38:33.324Z,7384.00
2022-08-02T06:39:33.298Z,7440.00
2022-08-02T06:40:33.306Z,7521.00
2022-08-02T06:41:33.267Z,7623.00
2022-08-02T06:42:33.249Z,7720.00
2022-08-02T06:43:34.192Z,7803.00
2022-08-02T06:44:51.934Z,7846.00
2022-08-02T06:45:35.201Z,7887.00
2022-08-02T06:47:08.212Z,7970.00
2022-08-02T06:47:34.241Z,7995.00
2022-08-02T06:48:33.171Z,8051.00
2022-08-02T06:49:51.715Z,8085.00
2022-08-02T06:50:34.187Z,8105.00
2022-08-02T06:51:34.129Z,8100.00
2022-08-02T06:52:34.092Z,8057.00
2022-08-02T06:53:34.084Z,7972.00
2022-08-02T06:54:33.115Z,7867.00
2022-08-02T06:55:43.857Z,7780.00
2022-08-02T06:56:34.139Z,7798.00
2022-08-02T06:57:33.046Z,7751.00
2022-08-02T06:58:33.047Z,7649.00
2022-08-02T06:59:33.035Z,7595.00
2022-08-02T07:00:33.012Z,7601.00
2022-08-02T07:01:33.976Z,7624.00
2022-08-02T07:02:34.030Z,7815.00
2022-08-02T07:03:32.977Z,7823.00
2022-08-02T07:04:33.003Z,7807.00
2022-08-02T07:05:32.955Z,7854.00
2022-08-02T07:06:33.947Z,7977.00
2022-08-02T07:07:32.933Z,8245.00
2022-08-02T07:08:32.933Z,8465.00
2022-08-02T07:09:32.909Z,8588.00
2022-08-02T07:10:32.890Z,8652.00
2022-08-02T07:11:32.893Z,8678.00
2022-08-02T07:12:32.868Z,8707.00
2022-08-02T07:13:35.647Z,8730.00
2022-08-02T07:14:34.015Z,8749.00
2022-08-02T07:15:32.835Z,8720.00
2022-08-02T07:16:33.764Z,8755.00
2022-08-02T07:17:32.785Z,8739.00
2022-08-02T07:18:32.786Z,8724.00
2022-08-02T07:19:37.370Z,8731.00
2022-08-02T07:20:33.754Z,8688.00
2022-08-02T07:21:57.021Z,8644.00
2022-08-02T07:22:33.724Z,8739.00
2022-08-02T07:23:32.727Z,8754.00
2022-08-02T07:24:32.713Z,8698.00
2022-08-02T07:26:02.590Z,8677.00
2022-08-02T07:26:41.389Z,8651.00
2022-08-02T07:27:33.671Z,8598.00
2022-08-02T07:28:32.658Z,8511.00
2022-08-02T07:29:33.588Z,8451.00
2022-08-02T07:30:33.632Z,8350.00
2022-08-02T07:31:32.622Z,8262.00
2022-08-02T07:32:32.619Z,8073.00
2022-08-02T07:33:37.819Z,8087.00
2022-08-02T07:34:33.577Z,8148.00
2022-08-02T07:35:32.560Z,8185.00
2022-08-02T07:36:32.561Z,8168.00
2022-08-02T07:37:54.742Z,8254.00
2022-08-02T07:38:33.610Z,8344.00
2022-08-02T07:39:32.521Z,8329.00
2022-08-02T07:40:32.509Z,8370.00
2022-08-02T07:41:32.543Z,8442.00
2022-08-02T07:42:32.515Z,8484.00
2022-08-02T07:43:32.577Z,8671.00
2022-08-02T07:44:32.531Z,8802.00
2022-08-02T07:45:32.433Z,9080.00
2022-08-02T07:46:32.427Z,9281.00
2022-08-02T07:47:33.353Z,9431.00
2022-08-02T07:48:32.394Z,9571.00
2022-08-02T07:49:33.380Z,9700.00
2022-08-02T07:50:32.407Z,9866.00
2022-08-02T07:51:32.357Z,10043.00
2022-08-02T07:52:32.337Z,10213.00
2022-08-02T07:53:50.771Z,10377.00
2022-08-02T07:54:33.320Z,10586.00
2022-08-02T07:55:39.938Z,10732.00
2022-08-02T07:56:33.324Z,11008.00
2022-08-02T07:57:32.269Z,11684.00
2022-08-02T07:58:32.261Z,12076.00
2022-08-02T07:59:32.266Z,12353.00
2022-08-02T08:00:32.291Z,12558.00
2022-08-02T08:01:32.255Z,12566.00
2022-08-02T08:02:32.232Z,13099.00
2022-08-02T08:03:32.212Z,13187.00
2022-08-02T08:04:32.196Z,13236.00
2022-08-02T08:05:32.272Z,13231.00
2022-08-02T08:06:32.173Z,13102.00
2022-08-02T08:07:32.175Z,12900.00
2022-08-02T08:08:32.186Z,12584.00
2022-08-02T08:09:32.160Z,12211.00
2022-08-02T08:10:32.115Z,11753.00
2022-08-02T08:11:32.086Z,11216.00
2022-08-02T08:12:32.096Z,10571.00
2022-08-02T08:13:32.106Z,9918.00
2022-08-02T08:14:32.177Z,9158.00
2022-08-02T08:15:32.051Z,8302.00
2022-08-02T08:16:32.032Z,7687.00
2022-08-02T08:17:32.026Z,7662.00
2022-08-02T08:18:32.012Z,7811.00
2022-08-02T08:19:50.476Z,8164.00
2022-08-02T08:20:34.120Z,8914.00
2022-08-02T08:21:31.969Z,10214.00
2022-08-02T08:22:31.966Z,11748.00
2022-08-02T08:23:31.942Z,12029.00
2022-08-02T08:24:31.932Z,11952.00
2022-08-02T08:25:31.928Z,11483.00
2022-08-02T08:26:32.933Z,11202.00
2022-08-02T08:27:31.927Z,10989.00
2022-08-02T08:28:31.891Z,10858.00
2022-08-02T08:29:31.878Z,10471.00
2022-08-02T08:30:31.854Z,10176.00
2022-08-02T08:31:31.847Z,10767.00
2022-08-02T08:32:32.884Z,11627.00
2022-08-02T08:33:31.837Z,12092.00
2022-08-02T08:34:31.807Z,12469.00
2022-08-02T08:35:31.798Z,12094.00
2022-08-02T08:36:31.856Z,12671.00
2022-08-02T08:37:31.766Z,12538.00
2022-08-02T08:38:31.819Z,12317.00
2022-08-02T08:39:31.740Z,11849.00
2022-08-02T08:40:31.730Z,11360.00
2022-08-02T08:41:31.719Z,11063.00
2022-08-02T08:42:31.699Z,10738.00
2022-08-02T08:43:31.730Z,10315.00
2022-08-02T08:44:31.701Z,10383.00
2022-08-02T08:45:32.651Z,10396.00
2022-08-02T08:46:31.651Z,10508.00
2022-08-02T08:47:33.645Z,10488.00
2022-08-02T08:48:32.066Z,10494.00
2022-08-02T08:49:31.687Z,10424.00
2022-08-02T08:50:31.621Z,10587.00
2022-08-02T08:51:31.585Z,10679.00
2022-08-02T08:52:31.576Z,10634.00
2022-08-02T08:53:36.056Z,10785.00
2022-08-02T08:54:32.545Z,10704.00
2022-08-02T08:55:31.543Z,10657.00
2022-08-02T08:56:31.555Z,10636.00
2022-08-02T08:57:31.540Z,10637.00
2022-08-02T08:58:31.505Z,10505.00
2022-08-02T08:59:32.448Z,10503.00
2022-08-02T09:00:32.477Z,10615.00
2022-08-02T09:01:49.409Z,10660.00
2022-08-02T09:02:32.676Z,10853.00
2022-08-02T09:03:33.988Z,10694.00
2022-08-02T09:04:31.422Z,10758.00
2022-08-02T09:05:31.423Z,10450.00
2022-08-02T09:06:31.390Z,10855.00
2022-08-02T09:07:31.399Z,11258.00
2022-08-02T09:08:31.412Z,11372.00
2022-08-02T09:09:31.406Z,11778.00
2022-08-02T09:10:31.345Z,12295.00
2022-08-02T09:11:31.326Z,12977.00
2022-08-02T09:12:31.349Z,13181.00
2022-08-02T09:13:45.832Z,13218.00
2022-08-02T09:14:32.352Z,13043.00
2022-08-02T09:15:31.287Z,13058.00
2022-08-02T09:16:31.290Z,11005.00
2022-08-02T09:17:31.257Z,11561.00
2022-08-02T09:18:31.247Z,11586.00
2022-08-02T09:19:31.227Z,11153.00
2022-08-02T09:20:31.247Z,10580.00
2022-08-02T09:21:31.290Z,10977.00
2022-08-02T09:22:31.189Z,11103.00
2022-08-02T09:23:31.190Z,11340.00
2022-08-02T09:24:31.763Z,11377.00
2022-08-02T09:25:31.165Z,11414.00
2022-08-02T09:26:31.170Z,11394.00
2022-08-02T09:27:31.141Z,11436.00
2022-08-02T09:28:31.153Z,11308.00
2022-08-02T09:29:32.061Z,11381.00
2022-08-02T09:30:31.097Z,11311.00
2022-08-02T09:31:31.074Z,11246.00
2022-08-02T09:32:31.239Z,11242.00
2022-08-02T09:33:31.117Z,11101.00
2022-08-02T09:34:31.097Z,11191.00
2022-08-02T09:35:31.042Z,11035.00
2022-08-02T09:36:32.014Z,10897.00
2022-08-02T09:37:31.008Z,10583.00
2022-08-02T09:38:31.037Z,10420.00
2022-08-02T09:39:31.986Z,10243.00
2022-08-02T09:40:30.978Z,10610.00
2022-08-02T09:41:30.955Z,10854.00
2022-08-02T09:42:31.285Z,10916.00
2022-08-02T09:43:30.928Z,10859.00
2022-08-02T09:44:30.941Z,10712.00
2022-08-02T09:45:30.922Z,10513.00
2022-08-02T09:46:30.902Z,10253.00
2022-08-02T09:47:31.846Z,10051.00
2022-08-02T09:48:31.880Z,10014.00
2022-08-02T09:49:30.941Z,9926.00
2022-08-02T09:50:30.882Z,9982.00
2022-08-02T09:51:30.838Z,10000.00
2022-08-02T09:52:37.138Z,9904.00
2022-08-02T09:53:31.804Z,9836.00
2022-08-02T09:54:30.800Z,9863.00
2022-08-02T09:55:30.788Z,9859.00
2022-08-02T09:56:35.443Z,10091.00
2022-08-02T09:57:31.745Z,10217.00
2022-08-02T09:58:30.739Z,10214.00
2022-08-02T09:59:30.727Z,10229.00
2022-08-02T10:00:50.677Z,10179.00
2022-08-02T10:01:37.490Z,10190.00
2022-08-02T10:02:31.733Z,10150.00
2022-08-02T10:03:35.165Z,10206.00
2022-08-02T10:04:32.058Z,10244.00
2022-08-02T10:05:32.254Z,10207.00
2022-08-02T10:06:31.650Z,10260.00
2022-08-02T10:07:30.681Z,10281.00
2022-08-02T10:08:32.742Z,10398.00
2022-08-02T10:09:30.602Z,10616.00
2022-08-02T10:10:30.704Z,10831.00
2022-08-02T10:11:30.572Z,11123.00
2022-08-02T10:12:31.513Z,11850.00
2022-08-02T10:13:30.593Z,11106.00
2022-08-02T10:14:30.532Z,10787.00
2022-08-02T10:15:30.542Z,12332.00
2022-08-02T10:16:30.516Z,11992.00
2022-08-02T10:17:30.494Z,11713.00
2022-08-02T10:18:39.798Z,11376.00
2022-08-02T10:20:00.776Z,11166.00
2022-08-02T10:20:31.455Z,11367.00
2022-08-02T10:21:30.449Z,11526.00
2022-08-02T10:22:30.442Z,11586.00
2022-08-02T10:23:32.503Z,10865.00
2022-08-02T10:24:30.406Z,10224.00
2022-08-02T10:25:30.530Z,11414.00
2022-08-02T10:26:30.391Z,11470.00
2022-08-02T10:27:43.185Z,11554.00
2022-08-02T10:28:31.351Z,11023.00
2022-08-02T10:29:30.375Z,11727.00
2022-08-02T10:30:31.362Z,11940.00
2022-08-02T10:31:30.344Z,12028.00
2022-08-02T10:32:30.308Z,12258.00
2022-08-02T10:33:30.294Z,12131.00
2022-08-02T10:34:31.586Z,11805.00
2022-08-02T10:35:31.226Z,12201.00
2022-08-02T10:36:30.363Z,12450.00
2022-08-02T10:37:30.245Z,12380.00
2022-08-02T10:38:30.223Z,11570.00
2022-08-02T10:39:30.226Z,12320.00
2022-08-02T10:40:30.195Z,12418.00
2022-08-02T10:41:30.198Z,11461.00
2022-08-02T10:42:30.220Z,11694.00
2022-08-02T10:43:30.157Z,11798.00
2022-08-02T10:44:30.183Z,12590.00
2022-08-02T10:45:30.144Z,12162.00
2022-08-02T10:46:30.123Z,13558.00
2022-08-02T10:47:30.109Z,13804.00
2022-08-02T10:48:30.211Z,14668.00
2022-08-02T10:49:40.143Z,12997.00
2022-08-02T10:50:31.094Z,14384.00
2022-08-02T10:51:34.545Z,14362.00
2022-08-02T10:52:31.053Z,14457.00
2022-08-02T10:53:30.036Z,14574.00
2022-08-02T10:54:30.053Z,14361.00
2022-08-02T10:55:30.026Z,13947.00
2022-08-02T10:56:29.994Z,14764.00
2022-08-02T10:57:30.011Z,14862.00
2022-08-02T10:58:30.137Z,14740.00
2022-08-02T10:59:30.025Z,15192.00
2022-08-02T11:00:30.066Z,15851.00
2022-08-02T11:01:38.705Z,14828.00
2022-08-02T11:02:30.945Z,14891.00
2022-08-02T11:03:29.917Z,16713.00
2022-08-02T11:04:29.919Z,15888.00
2022-08-02T11:05:34.756Z,16920.00
2022-08-02T11:06:30.927Z,16750.00
2022-08-02T11:07:30.822Z,16785.00
2022-08-02T11:08:29.842Z,16891.00
2022-08-02T11:09:32.827Z,16710.00
2022-08-02T11:10:29.823Z,16654.00
2022-08-02T11:11:53.526Z,16497.00
2022-08-02T11:12:31.799Z,16144.00
2022-08-02T11:13:29.793Z,15975.00
2022-08-02T11:14:29.772Z,15858.00
2022-08-02T11:15:29.779Z,15665.00
2022-08-02T11:16:29.747Z,16033.00
2022-08-02T11:17:38.074Z,16295.00
2022-08-02T11:18:30.745Z,16480.00
2022-08-02T11:19:29.766Z,17036.00
2022-08-02T11:20:29.727Z,17375.00
2022-08-02T11:21:29.694Z,17452.00
2022-08-02T11:22:29.696Z,17606.00
2022-08-02T11:23:44.570Z,17883.00
2022-08-02T11:24:30.796Z,17577.00
2022-08-02T11:25:43.029Z,16570.00
2022-08-02T11:26:30.638Z,16507.00
2022-08-02T11:27:29.632Z,16848.00
2022-08-02T11:28:29.599Z,16710.00
2022-08-02T11:29:29.602Z,16602.00
2022-08-02T11:30:29.614Z,16696.00
2022-08-02T11:31:29.580Z,15912.00
2022-08-02T11:32:31.037Z,16562.00
2022-08-02T11:33:29.553Z,16363.00
2022-08-02T11:34:37.257Z,16138.00
2022-08-02T11:35:30.535Z,17193.00
2022-08-02T11:36:29.504Z,17403.00
2022-08-02T11:37:29.513Z,17731.00
2022-08-02T11:38:29.475Z,17721.00
2022-08-02T11:39:30.476Z,16061.00
2022-08-02T11:40:35.418Z,16451.00
2022-08-02T11:41:46.821Z,17073.00
2022-08-02T11:42:30.427Z,16895.00
2022-08-02T11:43:29.438Z,16812.00
2022-08-02T11:44:29.432Z,16485.00
2022-08-02T11:45:30.157Z,16481.00
2022-08-02T11:46:29.371Z,16549.00
2022-08-02T11:47:29.410Z,16879.00
2022-08-02T11:48:29.364Z,17039.00
2022-08-02T11:49:29.442Z,17275.00
2022-08-02T11:50:30.265Z,17636.00
2022-08-02T11:51:29.321Z,17992.00
2022-08-02T11:52:29.393Z,18077.00
2022-08-02T11:53:29.351Z,18082.00
2022-08-02T11:54:29.284Z,17919.00
2022-08-02T11:55:29.266Z,17695.00
2022-08-02T11:56:29.255Z,17336.00
2022-08-02T11:57:29.243Z,17181.00
2022-08-02T11:58:30.245Z,17192.00
2022-08-02T11:59:29.217Z,17385.00
2022-08-02T12:00:30.917Z,17373.00
2022-08-02T12:01:29.216Z,17367.00
2022-08-02T12:02:29.182Z,17273.00
2022-08-02T12:03:29.223Z,17555.00
2022-08-02T12:04:29.177Z,17691.00
2022-08-02T12:06:30.131Z,17760.00
2022-08-02T12:07:34.397Z,18086.00
2022-08-02T12:08:30.098Z,18380.00
2022-08-02T12:09:30.041Z,18792.00
2022-08-02T12:10:29.111Z,18700.00
2022-08-02T12:11:36.714Z,18670.00
2022-08-02T12:12:30.059Z,19090.00
2022-08-02T12:13:29.032Z,19433.00
2022-08-02T12:14:29.024Z,19665.00
2022-08-02T12:15:29.047Z,19837.00
2022-08-02T12:16:29.037Z,19771.00
2022-08-02T12:17:28.998Z,20019.00
2022-08-02T12:18:28.991Z,20279.00
2022-08-02T12:19:28.971Z,20326.00